Time;durP1;ratioP1;P1;durP2;ratioP2;P2;SDS_P1;SDS_P2;PMS_P1;PMS_P2;Temp;Humidity;BMP_temperature;BMP_pressure;BME280_temperature;BME280_humidity;BME280_pressure;Samples;Min_cycle;Max_cycle;Signal;HPM_P1;HPM_P2
2022/07/14 00:00:58;;;;;;;11.15;4.25;;;;;;;19.42;54.36;98779.69;4938650;29;20043;-72
2022/07/14 00:03:24;;;;;;;11.48;5.78;;;;;;;19.43;54.79;98774.88;4939060;29;20047;-71
2022/07/14 00:05:52;;;;;;;19.98;6.30;;;;;;;19.48;54.91;98780.09;4939526;29;20107;-71
2022/07/14 00:08:18;;;;;;;16.92;5.63;;;;;;;19.63;55.32;98778.81;4957846;29;20061;-71
2022/07/14 00:10:47;;;;;;;27.52;7.45;;;;;;;19.74;55.35;98769.06;4957722;28;20054;-72
2022/07/14 00:13:14;;;;;;;31.73;12.65;;;;;;;19.80;55.25;98772.25;4957499;28;20101;-71
2022/07/14 00:15:41;;;;;;;17.10;6.68;;;;;;;19.84;55.14;98771.00;4957658;28;20047;-72
2022/07/14 00:18:08;;;;;;;23.15;6.75;;;;;;;19.90;55.07;98780.66;4957409;28;20055;-71
2022/07/14 00:20:35;;;;;;;19.38;6.00;;;;;;;19.94;54.85;98767.34;4957661;28;20503;-71
2022/07/14 00:23:02;;;;;;;11.45;5.90;;;;;;;20.01;54.71;98765.69;4957440;28;20090;-71
2022/07/14 00:25:29;;;;;;;14.27;6.47;;;;;;;20.02;54.54;98773.72;4957540;28;20213;-71
2022/07/14 00:27:56;;;;;;;22.77;6.25;;;;;;;19.99;54.40;98764.06;4957275;28;20059;-71
2022/07/14 00:30:23;;;;;;;12.43;5.68;;;;;;;19.99;54.48;98752.75;4957367;28;20608;-72
2022/07/14 00:32:51;;;;;;;15.27;5.63;;;;;;;19.99;54.64;98752.75;4957083;28;20158;-72
2022/07/14 00:35:18;;;;;;;20.63;5.75;;;;;;;20.04;54.28;98753.56;4956992;28;20069;-71
2022/07/14 00:37:45;;;;;;;24.20;5.97;;;;;;;20.07;54.30;98752.72;4957364;28;20047;-72
2022/07/14 00:40:12;;;;;;;21.33;5.93;;;;;;;20.08;54.21;98754.31;4957382;28;20059;-72
2022/07/14 00:42:44;;;;;;;15.27;5.97;;;;;;;20.10;54.22;98751.91;4956466;29;20143;-71
2022/07/14 00:45:14;;;;;;;15.95;6.20;;;;;;;20.11;54.24;98742.19;4956909;28;20051;-71
2022/07/14 00:47:42;;;;;;;17.42;5.60;;;;;;;20.08;54.19;98745.84;4956218;29;20065;-72
2022/07/14 00:50:11;;;;;;;15.00;6.20;;;;;;;20.08;53.84;98743.03;4957135;28;20082;-72
2022/07/14 00:52:44;;;;;;;14.27;5.70;;;;;;;20.11;53.69;98742.19;4957188;28;20051;-71
2022/07/14 00:55:12;;;;;;;9.77;5.30;;;;;;;20.11;53.50;98736.53;4956731;28;20112;-72
2022/07/14 00:57:40;;;;;;;20.73;6.78;;;;;;;20.12;53.33;98738.13;4955946;28;20102;-73
2022/07/14 01:00:10;;;;;;;15.90;5.65;;;;;;;20.15;53.52;98731.69;4956632;28;20094;-71
2022/07/14 01:02:37;;;;;;;;;;;;;;;19.98;53.81;98727.75;4957026;28;20061;-70
2022/07/14 01:05:06;;;;;;;14.77;5.72;;;;;;;19.93;54.25;98725.41;4956857;28;19926;-71
2022/07/14 01:07:33;;;;;;;18.33;6.93;;;;;;;19.87;54.73;98727.84;4956650;29;20050;-70
2022/07/14 01:10:00;;;;;;;14.80;6.18;;;;;;;19.86;55.16;98720.59;4957052;28;20055;-70
2022/07/14 01:12:29;;;;;;;20.15;7.90;;;;;;;19.77;55.03;98710.97;4956408;28;20054;-71
2022/07/14 01:14:56;;;;;;;31.27;7.63;;;;;;;19.80;54.89;98707.31;4955114;29;20051;-71
2022/07/14 01:17:25;;;;;;;21.02;7.63;;;;;;;19.79;54.65;98711.38;4956381;28;20059;-70
2022/07/14 01:19:52;;;;;;;16.27;6.17;;;;;;;19.77;54.75;98700.50;4956661;28;20055;-71
2022/07/14 01:22:19;;;;;;;13.70;5.45;;;;;;;19.76;55.00;98700.91;4956837;28;20579;-71
2022/07/14 01:24:45;;;;;;;17.77;6.72;;;;;;;19.68;55.34;98702.97;4956773;28;20069;-72
2022/07/14 01:27:12;;;;;;;14.25;5.30;;;;;;;19.62;55.97;98703.81;4956453;28;20055;-70
2022/07/14 01:29:39;;;;;;;15.65;6.50;;;;;;;19.58;55.64;98709.50;4956773;28;20051;-70
2022/07/14 01:32:06;;;;;;;22.00;5.75;;;;;;;19.54;55.18;98705.88;4955945;28;20591;-71
2022/07/14 01:34:33;;;;;;;17.20;5.53;;;;;;;19.53;54.67;98711.94;4955827;29;20054;-71
2022/07/14 01:37:00;;;;;;;22.83;6.35;;;;;;;19.50;54.41;98707.94;4955974;28;20047;-70
2022/07/14 01:39:27;;;;;;;12.45;5.90;;;;;;;19.52;54.42;98711.16;4956229;28;20155;-70
2022/07/14 01:41:54;;;;;;;16.13;5.55;;;;;;;19.50;54.18;98702.28;4956394;29;20050;-71
2022/07/14 01:44:21;;;;;;;17.85;5.97;;;;;;;19.50;53.80;98707.94;4956080;28;20055;-71
2022/07/14 01:46:48;;;;;;;14.52;5.65;;;;;;;19.53;53.50;98704.28;4954527;29;20142;-71
2022/07/14 01:49:15;;;;;;;15.40;4.85;;;;;;;19.54;53.22;98708.72;4955992;28;20142;-70
2022/07/14 01:51:42;;;;;;;17.08;6.43;;;;;;;19.61;52.95;98708.69;4955652;28;20134;-71
2022/07/14 01:54:09;;;;;;;33.47;5.53;;;;;;;19.65;52.80;98708.63;4955545;29;20454;-71
2022/07/14 01:56:40;;;;;;;13.88;5.07;;;;;;;19.75;52.57;98708.56;4955699;28;20055;-69
2022/07/14 01:59:07;;;;;;;17.10;5.13;;;;;;;19.83;52.29;98709.31;4955680;28;20083;-67
2022/07/14 02:01:41;;;;;;;17.15;5.30;;;;;;;19.86;52.20;98700.03;4955719;28;20050;-68
2022/07/14 02:04:11;;;;;;;17.05;5.13;;;;;;;19.96;51.85;98711.22;4955431;29;20051;-67
2022/07/14 02:06:41;;;;;;;17.70;5.10;;;;;;;20.02;52.00;98706.75;4954086;29;20134;-68
2022/07/14 02:09:08;;;;;;;16.63;5.05;;;;;;;20.09;51.92;98710.72;4955338;28;20051;-71
2022/07/14 02:14:22;;;;;;;12.63;4.80;;;;;;;20.02;52.06;98782.19;4955617;28;20075;-71
2022/07/14 02:16:49;;;;;;;9.00;3.72;;;;;;;20.02;51.17;98784.22;4955594;28;20061;-72
2022/07/14 02:19:16;;;;;;;9.80;3.40;;;;;;;19.90;50.51;98766.53;4955492;28;20051;-71
2022/07/14 02:21:44;;;;;;;10.00;3.10;;;;;;;19.84;50.13;98773.81;4955054;28;20050;-72
2022/07/14 02:24:11;;;;;;;12.23;3.58;;;;;;;19.86;49.42;98768.59;4955066;28;20106;-71
2022/07/14 02:26:39;;;;;;;8.90;3.33;;;;;;;19.78;49.02;98781.13;4955232;28;20102;-71
2022/07/14 02:29:06;;;;;;;5.95;2.95;;;;;;;19.73;48.91;98784.41;4955300;28;20078;-71
2022/07/14 02:31:34;;;;;;;8.57;4.05;;;;;;;19.65;48.73;98779.19;4955148;29;20049;-71
2022/07/14 02:34:02;;;;;;;5.53;3.35;;;;;;;19.62;48.58;98780.00;4955300;28;20085;-68
2022/07/14 02:36:30;;;;;;;13.20;3.10;;;;;;;19.63;48.55;98773.94;4953411;29;20552;-67
2022/07/14 02:38:57;;;;;;;11.77;2.83;;;;;;;19.70;48.48;98790.88;4955211;28;20055;-68
2022/07/14 02:41:24;;;;;;;7.18;2.92;;;;;;;19.70;48.42;98790.88;4955039;28;20039;-68
2022/07/14 02:43:51;;;;;;;8.38;2.97;;;;;;;19.72;48.32;98796.88;4954907;28;20059;-68
2022/07/14 02:46:17;;;;;;;4.97;3.33;;;;;;;19.73;48.11;98792.88;4953475;29;20055;-68
2022/07/14 02:48:44;;;;;;;3.92;2.25;;;;;;;19.79;48.01;98793.22;4955051;29;20194;-68
2022/07/14 02:51:11;;;;;;;7.45;2.45;;;;;;;19.79;47.59;98782.75;4954646;28;20549;-68
2022/07/14 02:53:38;;;;;;;6.40;2.28;;;;;;;19.80;47.60;98784.34;4954814;29;20055;-67
2022/07/14 02:56:06;;;;;;;11.95;2.38;;;;;;;19.82;47.42;98776.28;4954404;28;20055;-67
2022/07/14 02:58:34;;;;;;;8.30;2.38;;;;;;;19.85;47.46;98775.47;4955592;28;20074;-67
2022/07/14 03:01:06;;;;;;;4.28;2.25;;;;;;;19.89;47.42;98769.78;4954814;28;20061;-67
2022/07/14 03:03:34;;;;;;;4.63;2.05;;;;;;;19.84;47.65;98756.91;4955059;28;20047;-68
2022/07/14 03:06:13;;;;;;;5.85;2.53;;;;;;;19.95;47.52;98754.00;4953084;29;20664;-68
2022/07/14 03:08:41;;;;;;;3.78;1.85;;;;;;;19.91;47.53;98745.56;4954726;28;20498;-67
2022/07/14 03:11:08;;;;;;;6.28;1.83;;;;;;;19.84;47.59;98756.09;4954232;28;20079;-67
2022/07/14 03:13:36;;;;;;;6.65;2.47;;;;;;;19.75;49.23;98750.91;4954763;28;20051;-68
2022/07/14 03:16:06;;;;;;;4.65;2.00;;;;;;;19.72;49.78;98748.91;4954806;28;20097;-68
2022/07/14 03:18:35;;;;;;;5.20;2.97;;;;;;;19.56;50.46;98742.16;4954616;28;20075;-68
2022/07/14 03:21:07;;;;;;;4.10;2.35;;;;;;;19.52;50.85;98738.56;4954001;28;20052;-68
2022/07/14 03:23:35;;;;;;;8.10;2.38;;;;;;;19.44;51.50;98748.25;4954517;28;20043;-69
2022/07/14 03:26:02;;;;;;;2.85;1.65;;;;;;;19.37;51.87;98735.03;4954449;28;20071;-68
2022/07/14 03:28:29;;;;;;;5.90;1.95;;;;;;;19.33;52.30;98745.50;4954582;28;20070;-68
2022/07/14 03:30:57;;;;;;;3.88;1.92;;;;;;;19.31;52.72;98728.19;4954436;28;20051;-68
2022/07/14 03:33:26;;;;;;;8.98;2.15;;;;;;;19.25;53.07;98693.16;4954447;28;20102;-68
2022/07/14 03:35:53;;;;;;;4.53;1.77;;;;;;;19.16;53.49;98697.63;4953948;28;20057;-69
2022/07/14 03:38:20;;;;;;;5.97;1.75;;;;;;;19.06;53.47;98687.97;4954328;28;20086;-68
2022/07/14 03:41:04;;;;;;;4.70;1.90;;;;;;;19.10;53.89;98683.13;4954498;28;20174;-68
2022/07/14 03:43:34;;;;;;;3.08;1.88;;;;;;;19.08;54.58;98688.38;4954409;28;20507;-68
2022/07/14 03:46:03;;;;;;;8.50;2.30;;;;;;;19.09;55.22;98683.53;4954351;28;20090;-68
2022/07/14 03:48:31;;;;;;;5.40;2.20;;;;;;;19.02;55.72;98680.75;4954472;29;20078;-68
2022/07/14 03:50:58;;;;;;;5.57;2.17;;;;;;;19.06;56.33;98684.34;4954001;28;20060;-68
2022/07/14 03:53:25;;;;;;;4.57;2.00;;;;;;;19.09;56.39;98681.53;4953916;28;20085;-68
2022/07/14 03:55:52;;;;;;;3.17;1.88;;;;;;;19.13;56.68;98675.88;4953710;29;20410;-69
2022/07/14 03:58:19;;;;;;;4.63;1.90;;;;;;;19.17;57.27;98673.84;4954115;28;20103;-69
2022/07/14 04:00:47;;;;;;;3.20;2.00;;;;;;;19.22;57.47;98677.03;4954105;29;20055;-67
2022/07/14 04:03:14;;;;;;;2.88;2.08;;;;;;;19.31;57.91;98663.34;4954085;29;20051;-67
2022/07/14 04:05:42;;;;;;;4.45;2.20;;;;;;;19.37;58.17;98666.50;4953732;28;20419;-69
2022/07/14 04:08:09;;;;;;;4.55;2.30;;;;;;;19.36;58.73;98660.06;4953694;28;20133;-69
2022/07/14 04:10:36;;;;;;;6.03;2.30;;;;;;;19.36;58.91;98668.53;4954211;28;20098;-69
2022/07/14 04:13:03;;;;;;;3.22;2.22;;;;;;;19.35;59.34;98666.94;4953910;28;20051;-69
2022/07/14 04:15:31;;;;;;;5.30;2.72;;;;;;;19.38;59.47;98668.09;4954032;28;20049;-72
2022/07/14 04:17:58;;;;;;;7.30;1.98;;;;;;;19.44;58.93;98664.44;4954073;28;20051;-72
2022/07/14 04:20:26;;;;;;;6.57;3.08;;;;;;;19.51;58.58;98667.22;4953667;28;20047;-70
2022/07/14 04:22:53;;;;;;;6.07;2.42;;;;;;;19.56;57.92;98672.44;4953805;29;20053;-70
2022/07/14 04:25:20;;;;;;;3.75;2.33;;;;;;;19.60;57.36;98683.69;4953474;29;20158;-71
2022/07/14 04:27:46;;;;;;;6.78;2.65;;;;;;;19.60;57.33;98673.19;4953956;28;20396;-71
2022/07/14 04:30:14;;;;;;;4.05;2.00;;;;;;;19.62;57.21;98659.50;4953993;28;20078;-71
2022/07/14 04:32:42;;;;;;;3.78;2.33;;;;;;;19.67;56.62;98650.59;4954784;28;20142;-71
2022/07/14 04:35:09;;;;;;;4.15;2.10;;;;;;;19.70;56.30;98634.84;4957095;28;20113;-71
2022/07/14 04:37:36;;;;;;;3.30;2.30;;;;;;;19.72;55.63;98635.25;4956811;28;20051;-72
2022/07/14 04:40:05;;;;;;;4.80;2.42;;;;;;;19.76;54.91;98638.81;4957106;28;20121;-71
2022/07/14 04:42:32;;;;;;;10.40;2.58;;;;;;;19.83;54.20;98635.94;4956990;29;20109;-71
2022/07/14 04:44:59;;;;;;;3.60;2.25;;;;;;;20.02;53.63;98626.91;4957047;28;20113;-70
2022/07/14 04:47:26;;;;;;;6.40;2.53;;;;;;;20.28;52.51;98628.31;4956807;28;20054;-69
2022/07/14 04:52:47;;;;;;;6.40;2.50;;;;;;;20.72;51.78;98620.53;4956768;28;20067;-69
2022/07/14 04:55:15;;;;;;;9.35;2.50;;;;;;;20.93;51.50;98625.91;4956986;28;20388;-69
2022/07/14 04:57:42;;;;;;;4.97;3.20;;;;;;;21.32;51.05;98622.59;4955652;29;20047;-69
2022/07/14 05:00:10;;;;;;;4.40;2.45;;;;;;;21.86;49.98;98621.34;4956545;28;20051;-69
2022/07/14 05:02:37;;;;;;;4.90;2.20;;;;;;;22.24;49.38;98628.38;4956133;28;20047;-69
2022/07/14 05:05:05;;;;;;;4.07;1.92;;;;;;;22.37;49.06;98629.34;4956290;28;20054;-68
2022/07/14 05:07:33;;;;;;;4.88;2.83;;;;;;;22.38;48.91;98628.09;4955398;28;20051;-68
2022/07/14 05:09:59;;;;;;;9.13;2.85;;;;;;;22.46;48.22;98623.09;4956598;28;20622;-69
2022/07/14 05:12:29;;;;;;;17.45;3.28;;;;;;;22.61;47.57;98613.09;4956374;28;20051;-68
2022/07/14 05:14:56;;;;;;;6.65;2.72;;;;;;;22.72;47.22;98608.84;4956580;29;20575;-68
2022/07/14 05:17:23;;;;;;;9.02;3.05;;;;;;;23.05;46.71;98619.09;4956549;28;20086;-67
2022/07/14 05:19:52;;;;;;;4.68;2.53;;;;;;;23.24;46.34;98604.09;4956299;28;20047;-69
2022/07/14 05:22:19;;;;;;;8.27;3.13;;;;;;;23.30;45.94;98613.69;4956168;28;20090;-67
2022/07/14 05:24:46;;;;;;;9.00;2.75;;;;;;;23.18;46.18;98611.47;4956385;28;20051;-68
2022/07/14 05:27:13;;;;;;;9.07;3.13;;;;;;;23.04;45.98;98606.13;4955033;29;20173;-68
2022/07/14 05:29:40;;;;;;;14.52;3.22;;;;;;;22.97;46.12;98599.78;4956329;29;20047;-70
2022/07/14 05:32:07;;;;;;;8.52;3.17;;;;;;;22.94;45.52;98601.47;4956012;28;20050;-69
2022/07/14 05:34:43;;;;;;;5.75;2.70;;;;;;;22.95;45.45;98597.41;4956091;28;20142;-67
2022/07/14 05:37:11;;;;;;;7.10;2.60;;;;;;;22.90;45.01;98600.75;4956092;28;20138;-70
2022/07/14 05:39:38;;;;;;;9.73;3.15;;;;;;;22.91;44.03;98590.19;4956198;28;20047;-72
2022/07/14 05:42:05;;;;;;;6.60;2.70;;;;;;;22.93;43.43;98591.38;4955840;29;20506;-72
2022/07/14 05:44:34;;;;;;;14.02;2.92;;;;;;;22.88;42.93;98585.41;4955577;28;20059;-72
2022/07/14 05:47:01;;;;;;;15.85;2.67;;;;;;;22.79;42.77;98588.84;4955819;28;20055;-72
2022/07/14 05:49:28;;;;;;;9.55;2.40;;;;;;;22.80;42.39;98573.41;4954743;29;20070;-72
2022/07/14 05:51:55;;;;;;;9.80;2.10;;;;;;;22.84;42.72;98579.00;4955428;29;20047;-72
2022/07/14 05:54:22;;;;;;;12.50;3.13;;;;;;;22.73;42.99;98573.56;4955738;28;20153;-73
2022/07/14 05:56:49;;;;;;;15.02;3.05;;;;;;;22.66;44.15;98568.06;4955438;28;20057;-72
2022/07/14 05:59:16;;;;;;;12.45;2.95;;;;;;;22.68;44.38;98576.91;4955544;29;20102;-69
2022/07/14 06:02:03;;;;;;;11.52;3.47;;;;;;;22.72;43.95;98576.84;4955394;29;20471;-70
2022/07/14 06:04:31;;;;;;;7.22;2.42;;;;;;;22.64;43.12;98576.19;4955801;28;20467;-72
2022/07/14 06:06:58;;;;;;;9.77;2.70;;;;;;;22.56;42.58;98577.56;4953905;29;20078;-73
2022/07/14 06:09:25;;;;;;;14.18;3.10;;;;;;;22.59;41.60;98585.19;4955627;28;20138;-72
2022/07/14 06:11:52;;;;;;;7.25;3.05;;;;;;;22.60;41.27;98586.00;4955079;28;20059;-73
2022/07/14 06:14:19;;;;;;;10.02;2.53;;;;;;;22.56;41.47;98583.22;4955520;28;20118;-71
2022/07/14 06:16:47;;;;;;;6.07;2.65;;;;;;;22.56;41.19;98590.97;4955394;28;20154;-72
2022/07/14 06:19:14;;;;;;;8.15;2.17;;;;;;;22.63;40.60;98585.94;4955472;29;20515;-73
2022/07/14 06:21:42;;;;;;;6.07;2.53;;;;;;;22.93;40.02;98580.03;4955428;28;20051;-72
2022/07/14 06:24:11;;;;;;;11.60;3.30;;;;;;;23.57;38.97;98578.59;4955425;28;20117;-72
2022/07/14 06:26:38;;;;;;;14.95;2.65;;;;;;;24.80;36.60;98576.94;4955005;28;20055;-73
2022/07/14 06:29:05;;;;;;;6.13;2.70;;;;;;;25.41;35.99;98579.56;4955060;28;20063;-72
2022/07/14 06:31:34;;;;;;;11.18;2.70;;;;;;;26.23;34.47;98579.25;4955079;29;20138;-71
2022/07/14 06:34:02;;;;;;;8.23;2.67;;;;;;;27.06;32.96;98578.69;4955282;29;20464;-71
2022/07/14 06:36:30;;;;;;;9.25;2.60;;;;;;;27.23;32.27;98574.34;4953467;29;20069;-71
2022/07/14 06:38:58;;;;;;;8.32;2.35;;;;;;;27.20;32.60;98566.72;4954667;28;20089;-73
2022/07/14 06:41:25;;;;;;;10.40;2.65;;;;;;;27.18;32.72;98575.75;4954917;28;20073;-70
2022/07/14 06:43:52;;;;;;;14.40;2.67;;;;;;;27.24;32.89;98579.59;4954856;28;20558;-72
2022/07/14 06:46:19;;;;;;;8.00;3.00;;;;;;;27.27;32.46;98575.81;4954922;28;20059;-72
2022/07/14 06:48:46;;;;;;;7.15;2.65;;;;;;;27.30;31.90;98568.38;4954842;28;20062;-72
2022/07/14 06:51:13;;;;;;;5.28;2.00;;;;;;;27.59;30.91;98565.97;4955615;28;20051;-71
2022/07/14 06:53:40;;;;;;;7.88;2.20;;;;;;;27.19;31.39;98571.63;4954991;29;20043;-72
2022/07/14 06:56:07;;;;;;;9.95;3.00;;;;;;;27.09;31.26;98566.31;4953835;28;20089;-71
2022/07/14 06:58:34;;;;;;;7.40;2.35;;;;;;;26.80;32.12;98567.38;4953949;29;20059;-73
2022/07/14 07:01:02;;;;;;;7.97;2.40;;;;;;;26.19;33.27;98567.19;4954889;28;20146;-73
2022/07/14 07:03:29;;;;;;;5.63;2.75;;;;;;;25.53;34.72;98570.22;4955071;28;20060;-73
2022/07/14 07:08:51;;;;;;;13.43;5.75;;;;;;;24.83;35.77;98566.69;4954607;28;20063;-72
2022/07/14 07:11:18;;;;;;;18.33;3.78;;;;;;;24.56;36.06;98558.50;4954582;28;20094;-71
2022/07/14 07:13:45;;;;;;;6.32;2.72;;;;;;;24.33;36.64;98557.94;4954282;28;20539;-71
2022/07/14 07:16:12;;;;;;;4.00;2.55;;;;;;;24.02;37.31;98554.72;4954323;28;20059;-71
2022/07/14 07:18:39;;;;;;;6.63;3.00;;;;;;;23.86;37.86;98562.44;4953588;29;20142;-71
2022/07/14 07:21:06;;;;;;;12.68;2.22;;;;;;;23.64;38.38;98578.41;4954121;28;20154;-72
2022/07/14 07:23:33;;;;;;;9.57;2.70;;;;;;;23.41;39.55;98601.28;4954704;28;20055;-71
2022/07/14 07:26:01;;;;;;;10.95;3.40;;;;;;;23.14;41.05;98599.44;4955116;28;20102;-72
2022/07/14 07:28:28;;;;;;;12.20;3.00;;;;;;;22.92;41.80;98606.78;4954195;28;20455;-71
2022/07/14 07:30:54;;;;;;;9.23;2.50;;;;;;;22.64;43.02;98610.22;4954165;29;20059;-72
2022/07/14 07:33:21;;;;;;;30.80;5.10;;;;;;;22.40;45.20;98611.47;4954217;28;20043;-70
2022/07/14 07:35:48;;;;;;;19.10;2.92;;;;;;;22.08;46.73;98590.63;4954037;28;20106;-72
2022/07/14 07:38:17;;;;;;;6.20;3.10;;;;;;;21.86;47.54;98576.06;4954229;28;20043;-72
2022/07/14 07:40:48;;;;;;;7.60;3.30;;;;;;;21.61;48.65;98561.47;4954292;28;20059;-72
2022/07/14 07:43:16;;;;;;;37.53;15.93;;;;;;;21.45;50.37;98524.56;4954289;28;20059;-73
2022/07/14 07:45:43;;;;;;;11.65;3.60;;;;;;;21.19;51.75;98519.72;4953588;28;20079;-72
2022/07/14 07:48:17;;;;;;;9.10;3.63;;;;;;;21.14;52.32;98511.72;4953885;29;20059;-72
2022/07/14 07:50:46;;;;;;;7.18;2.70;;;;;;;21.24;51.96;98514.38;4953957;28;20130;-70
2022/07/14 07:53:13;;;;;;;11.27;3.07;;;;;;;21.28;51.54;98500.97;4954492;29;20051;-69
2022/07/14 07:55:43;;;;;;;9.32;3.05;;;;;;;21.38;52.00;98504.88;4954056;28;20055;-69
2022/07/14 07:58:10;;;;;;;4.78;2.75;;;;;;;21.52;52.36;98496.94;4952754;29;20059;-68
2022/07/14 08:00:37;;;;;;;3.85;2.30;;;;;;;21.98;50.71;98493.28;4953985;28;20439;-69
2022/07/14 08:03:05;;;;;;;4.95;2.45;;;;;;;24.43;45.36;98494.31;4953959;29;20482;-70
2022/07/14 08:05:32;;;;;;;10.30;2.65;;;;;;;26.74;40.77;98492.19;4953593;28;20062;-69
2022/07/14 08:08:19;;;;;;;6.65;2.78;;;;;;;25.79;42.72;98491.22;4957420;28;20051;-69
2022/07/14 08:10:46;;;;;;;8.05;3.08;;;;;;;25.35;43.47;98495.97;4957642;28;20138;-68
2022/07/14 08:13:13;;;;;;;6.32;2.60;;;;;;;25.62;42.61;98486.91;4957484;28;20079;-70
2022/07/14 08:15:41;;;;;;;8.48;2.70;;;;;;;25.97;42.54;98495.03;4957328;28;20059;-69
2022/07/14 08:18:08;;;;;;;13.13;2.92;;;;;;;28.90;37.86;98496.84;4956507;29;20079;-70
2022/07/14 08:20:35;;;;;;;7.32;3.00;;;;;;;33.38;30.43;98498.59;4957447;28;20495;-69
2022/07/14 08:23:03;;;;;;;6.43;3.42;;;;;;;36.35;26.84;98499.91;4957735;28;20098;-68
2022/07/14 08:25:30;;;;;;;8.50;2.63;;;;;;;36.16;26.21;98487.31;4957681;28;20107;-69
2022/07/14 08:27:57;;;;;;;11.23;3.75;;;;;;;34.74;27.85;98486.75;4957200;28;20070;-69
2022/07/14 08:30:24;;;;;;;16.77;6.38;;;;;;;32.75;30.69;98490.31;4955739;29;20507;-69
2022/07/14 08:32:52;;;;;;;12.85;4.10;;;;;;;30.97;33.54;98485.34;4957117;28;20122;-69
2022/07/14 08:35:23;;;;;;;7.10;3.20;;;;;;;29.89;34.83;98484.19;4956879;28;20083;-69
2022/07/14 08:38:02;;;;;;;7.68;3.70;;;;;;;28.75;36.04;98478.75;5070395;28;20387;-69
2022/07/14 08:40:37;;;;;;;8.13;3.78;;;;;;;29.54;33.75;98478.16;5069452;28;20110;-69
2022/07/14 08:43:04;;;;;;;8.30;4.25;;;;;;;31.03;31.37;98469.00;5069987;28;20110;-69
2022/07/14 08:45:39;;;;;;;6.65;4.00;;;;;;;32.26;29.71;98465.38;5069518;28;20131;-68
2022/07/14 08:48:07;;;;;;;14.25;4.15;;;;;;;33.29;27.93;98461.25;5068304;28;20053;-69
2022/07/14 08:50:35;;;;;;;11.27;3.42;;;;;;;33.72;26.30;98455.56;5069920;28;20476;-69
2022/07/14 08:53:03;;;;;;;8.98;3.25;;;;;;;35.26;24.21;98461.91;5069723;28;20500;-69
2022/07/14 08:55:34;;;;;;;17.05;7.22;;;;;;;34.66;25.26;98436.59;5067801;28;20140;-70
2022/07/14 08:58:01;;;;;;;12.23;5.18;;;;;;;33.83;25.99;98438.31;5069429;28;20523;-72
2022/07/14 09:00:28;;;;;;;6.15;2.50;;;;;;;32.44;26.55;98444.19;5069508;28;20056;-72
2022/07/14 09:03:00;;;;;;;10.52;3.28;;;;;;;30.98;28.31;98430.28;5069361;28;20047;-72
2022/07/14 09:05:47;;;;;;;7.80;3.00;;;;;;;30.74;29.13;98420.97;5048346;28;20056;-72
2022/07/14 09:08:14;;;;;;;4.40;2.65;;;;;;;32.84;26.29;98421.81;5049244;28;20183;-73
2022/07/14 09:10:43;;;;;;;7.70;2.75;;;;;;;35.03;23.47;98425.59;5049020;28;20128;-72
2022/07/14 09:13:29;;;;;;;12.93;2.50;;;;;;;34.88;22.62;98416.41;5049613;28;20064;-72
2022/07/14 09:16:21;;;;;;;7.35;3.03;;;;;;;35.10;22.19;98427.97;5049332;28;20071;-71
2022/07/14 09:19:06;;;;;;;5.35;2.70;;;;;;;35.81;21.45;98414.72;5049284;28;20148;-72
2022/07/14 09:21:33;;;;;;;6.40;2.38;;;;;;;36.11;21.39;98410.69;5048778;28;20144;-73
2022/07/14 09:24:00;;;;;;;4.22;2.55;;;;;;;35.73;21.65;98408.69;5048933;28;20492;-72
2022/07/14 09:26:27;;;;;;;4.00;2.00;;;;;;;34.92;21.50;98411.13;5047513;28;20527;-72
2022/07/14 09:28:55;;;;;;;9.38;2.33;;;;;;;34.01;22.22;98403.28;5049097;28;20565;-71
2022/07/14 09:31:28;;;;;;;6.30;1.92;;;;;;;32.70;23.87;98388.16;5048663;28;20103;-71
2022/07/14 09:34:00;;;;;;;7.63;1.90;;;;;;;32.93;23.62;98389.97;5048906;28;20057;-73
2022/07/14 09:36:30;;;;;;;6.57;1.92;;;;;;;32.48;24.12;98387.94;5063374;28;20053;-72
2022/07/14 09:39:18;;;;;;;8.23;2.53;;;;;;;31.19;25.43;98380.19;5068204;28;20049;-72
2022/07/14 09:41:51;;;;;;;11.55;2.33;;;;;;;30.17;27.13;98379.41;5068074;28;20059;-73
2022/07/14 09:44:19;;;;;;;6.85;2.35;;;;;;;29.51;28.40;98380.84;5068614;28;20052;-72
2022/07/14 09:46:46;;;;;;;7.43;2.10;;;;;;;28.55;29.39;98381.16;5068275;28;20041;-72
2022/07/14 09:49:17;;;;;;;9.73;3.45;;;;;;;27.83;30.59;98376.25;5055999;28;20052;-73
2022/07/14 09:51:58;;;;;;;4.60;2.42;;;;;;;27.20;31.68;98379.00;5055355;28;20064;-71
2022/07/14 09:54:55;;;;;;;14.27;2.40;;;;;;;26.53;32.89;98381.72;5044837;28;20055;-71
2022/07/14 09:57:25;;;;;;;7.45;2.33;;;;;;;26.05;33.54;98376.66;5041671;28;20045;-72
2022/07/14 09:59:59;;;;;;;5.10;2.15;;;;;;;25.72;34.03;98383.19;5053052;28;20048;-73
2022/07/14 10:02:29;;;;;;;4.05;1.88;;;;;;;25.42;34.49;98378.97;5042816;28;20052;-74
2022/07/14 10:05:08;;;;;;;3.85;2.30;;;;;;;25.36;34.47;98383.66;5037913;28;20049;-72
2022/07/14 10:07:48;;;;;;;7.45;2.13;;;;;;;25.28;35.02;98384.31;5042769;28;20501;-73
2022/07/14 10:10:22;;;;;;;5.27;2.30;;;;;;;25.31;34.87;98392.72;5044499;28;20478;-73
2022/07/14 10:12:52;;;;;;;9.52;2.20;;;;;;;25.43;34.67;98383.38;5035834;28;20542;-73
2022/07/14 10:15:19;;;;;;;3.95;2.03;;;;;;;25.80;33.65;98391.03;5050441;28;20442;-72
2022/07/14 10:17:46;;;;;;;12.38;2.22;;;;;;;26.04;33.25;98383.66;5045399;28;20492;-71
2022/07/14 10:20:16;;;;;;;9.30;6.25;;;;;;;26.14;32.55;98396.69;5054392;28;20045;-73
2022/07/14 10:22:45;;;;;;;8.02;3.78;;;;;;;26.12;32.26;98384.97;5043389;28;20060;-71
2022/07/14 10:25:12;;;;;;;5.72;2.33;;;;;;;26.22;32.50;98392.31;5038302;28;20119;-72
2022/07/14 10:27:41;;;;;;;5.20;1.80;;;;;;;26.41;32.30;98376.91;5044837;28;20048;-72
2022/07/14 10:30:10;;;;;;;5.47;1.60;;;;;;;26.45;32.32;98386.13;5033965;28;20049;-73
2022/07/14 10:32:49;;;;;;;4.87;2.03;;;;;;;26.18;32.36;98383.13;5043980;28;20411;-73
2022/07/14 10:35:28;;;;;;;3.40;2.13;;;;;;;26.13;32.63;98380.84;5045361;28;20628;-72
2022/07/14 10:38:01;;;;;;;4.45;3.33;;;;;;;26.12;33.19;98376.41;5038504;28;20049;-72
2022/07/14 10:40:47;;;;;;;4.05;2.30;;;;;;;26.14;33.43;98371.03;5036948;28;20057;-69
2022/07/14 10:43:22;;;;;;;7.38;2.33;;;;;;;26.06;34.22;98380.31;5044331;28;20067;-67
2022/07/14 10:45:52;;;;;;;5.75;2.45;;;;;;;25.79;34.73;98400.84;5042150;28;20090;-68
2022/07/14 10:48:28;;;;;;;4.10;2.42;;;;;;;25.40;34.80;98387.16;5046125;28;20124;-68
2022/07/14 10:51:14;;;;;;;5.70;2.22;;;;;;;25.07;35.97;98394.38;5038458;28;20535;-68
2022/07/14 10:54:08;;;;;;;3.95;2.20;;;;;;;24.84;36.14;98397.59;5043769;28;20044;-69
2022/07/14 10:57:16;;;;;;;14.60;5.70;;;;;;;24.69;36.09;98402.13;5040354;28;20072;-68
2022/07/14 10:59:48;;;;;;;10.48;5.38;;;;;;;24.88;35.78;98421.84;5035280;28;20054;-68
2022/07/14 11:02:16;;;;;;;4.88;2.22;;;;;;;24.97;35.85;98404.88;5042717;28;20041;-68
2022/07/14 11:05:14;;;;;;;11.38;1.90;;;;;;;24.95;35.74;98398.81;5042410;28;20497;-68
2022/07/14 11:08:09;;;;;;;4.05;1.90;;;;;;;24.94;35.86;98385.06;5040477;28;20049;-68
2022/07/14 11:10:36;;;;;;;4.38;2.08;;;;;;;25.02;35.84;98386.41;5049075;28;20531;-69
2022/07/14 11:13:03;;;;;;;2.97;1.73;;;;;;;24.97;35.85;98389.84;5043649;28;20393;-68
2022/07/14 11:15:54;;;;;;;3.03;2.00;;;;;;;24.98;35.68;98392.22;5053662;28;20423;-68
2022/07/14 11:18:34;;;;;;;2.38;1.50;;;;;;;25.20;35.15;98392.31;5043667;28;20133;-68
2022/07/14 11:21:18;;;;;;;5.57;2.10;;;;;;;25.34;34.48;98394.69;5035837;28;20049;-72
2022/07/14 11:23:51;;;;;;;3.97;1.75;;;;;;;25.10;35.13;98397.09;5036733;28;20045;-72
2022/07/14 11:26:37;;;;;;;6.00;2.40;;;;;;;24.78;36.02;98396.56;5032954;28;20064;-76
2022/07/14 11:29:13;;;;;;;9.18;2.00;;;;;;;24.76;36.63;98396.22;5033504;28;20053;-72
2022/07/14 11:31:51;;;;;;;6.03;2.10;;;;;;;24.97;36.68;98398.38;5034063;28;20057;-72
2022/07/14 11:37:19;;;;;;;8.35;2.45;;;;;;;24.96;37.54;98400.41;5038846;28;20049;-72
2022/07/14 11:40:49;;;;;;;17.25;3.80;;;;;;;24.67;37.82;98384.72;5032491;28;20077;-72
2022/07/14 11:43:31;;;;;;;16.50;6.53;;;;;;;24.30;38.35;98397.59;5032634;28;20128;-71
2022/07/14 11:46:06;;;;;;;4.82;2.60;;;;;;;24.07;39.40;98385.75;5032386;28;20045;-73
2022/07/14 11:48:39;;;;;;;6.32;2.38;;;;;;;23.95;39.63;98397.84;5043039;28;20041;-73
2022/07/14 11:51:12;;;;;;;5.18;2.88;;;;;;;23.88;40.14;98383.81;5041330;28;20128;-77
2022/07/14 11:53:39;;;;;;;4.68;2.17;;;;;;;23.96;39.87;98382.41;5049088;28;20053;-74
2022/07/14 11:56:08;;;;;;;3.25;2.38;;;;;;;24.13;39.79;98378.25;5047779;28;20047;-74